sensor_id;sensor_type;location;lat;lon;timestamp;P1;durP1;ratioP1;P2;durP2;ratioP2
31424;SDS011;18054;51.572;7.372;2023-03-01T00:02:01;14.88;;;10.38;;
31424;SDS011;18054;51.572;7.372;2023-03-01T00:04:29;20.10;;;9.88;;
31424;SDS011;18054;51.572;7.372;2023-03-01T00:06:59;27.95;;;10.15;;
31424;SDS011;18054;51.572;7.372;2023-03-01T00:09:26;15.60;;;9.95;;
31424;SDS011;18054;51.572;7.372;2023-03-01T00:11:58;19.13;;;10.20;;
31424;SDS011;18054;51.572;7.372;2023-03-01T00:14:25;22.33;;;10.02;;
31424;SDS011;18054;51.572;7.372;2023-03-01T00:16:53;23.40;;;9.95;;
31424;SDS011;18054;51.572;7.372;2023-03-01T00:19:22;22.17;;;11.02;;
31424;SDS011;18054;51.572;7.372;2023-03-01T00:21:50;20.73;;;11.10;;
31424;SDS011;18054;51.572;7.372;2023-03-01T00:24:17;19.33;;;11.05;;
31424;SDS011;18054;51.572;7.372;2023-03-01T00:26:45;18.75;;;10.13;;
31424;SDS011;18054;51.572;7.372;2023-03-01T00:31:41;17.70;;;10.40;;
31424;SDS011;18054;51.572;7.372;2023-03-01T00:34:08;23.90;;;11.73;;
31424;SDS011;18054;51.572;7.372;2023-03-01T00:36:36;18.00;;;10.93;;
31424;SDS011;18054;51.572;7.372;2023-03-01T00:39:04;20.33;;;11.70;;
31424;SDS011;18054;51.572;7.372;2023-03-01T00:41:32;23.25;;;11.68;;
31424;SDS011;18054;51.572;7.372;2023-03-01T00:44:01;20.65;;;10.75;;
31424;SDS011;18054;51.572;7.372;2023-03-01T00:46:28;20.13;;;11.00;;
31424;SDS011;18054;51.572;7.372;2023-03-01T00:48:58;28.25;;;11.75;;
31424;SDS011;18054;51.572;7.372;2023-03-01T00:51:28;24.30;;;11.75;;
31424;SDS011;18054;51.572;7.372;2023-03-01T00:56:26;26.70;;;12.60;;
31424;SDS011;18054;51.572;7.372;2023-03-01T00:58:56;19.77;;;10.88;;
31424;SDS011;18054;51.572;7.372;2023-03-01T01:01:29;18.42;;;10.73;;
31424;SDS011;18054;51.572;7.372;2023-03-01T01:04:05;20.95;;;10.48;;
31424;SDS011;18054;51.572;7.372;2023-03-01T01:06:37;21.33;;;11.77;;
31424;SDS011;18054;51.572;7.372;2023-03-01T01:09:07;20.95;;;10.90;;
31424;SDS011;18054;51.572;7.372;2023-03-01T01:11:35;18.73;;;10.52;;
31424;SDS011;18054;51.572;7.372;2023-03-01T01:14:06;26.90;;;11.32;;
31424;SDS011;18054;51.572;7.372;2023-03-01T01:19:01;22.13;;;10.50;;
31424;SDS011;18054;51.572;7.372;2023-03-01T01:21:30;25.75;;;11.35;;
31424;SDS011;18054;51.572;7.372;2023-03-01T01:24:02;21.35;;;10.80;;
31424;SDS011;18054;51.572;7.372;2023-03-01T01:26:30;21.80;;;10.85;;
31424;SDS011;18054;51.572;7.372;2023-03-01T01:28:59;17.98;;;10.90;;
31424;SDS011;18054;51.572;7.372;2023-03-01T01:33:56;19.58;;;9.77;;
31424;SDS011;18054;51.572;7.372;2023-03-01T01:36:23;22.13;;;11.60;;
31424;SDS011;18054;51.572;7.372;2023-03-01T01:38:52;18.15;;;11.15;;
31424;SDS011;18054;51.572;7.372;2023-03-01T01:41:20;22.45;;;11.35;;
31424;SDS011;18054;51.572;7.372;2023-03-01T01:43:49;20.70;;;11.18;;
31424;SDS011;18054;51.572;7.372;2023-03-01T01:46:20;23.10;;;11.20;;
31424;SDS011;18054;51.572;7.372;2023-03-01T01:48:55;34.50;;;12.20;;
31424;SDS011;18054;51.572;7.372;2023-03-01T01:51:25;26.90;;;11.90;;
31424;SDS011;18054;51.572;7.372;2023-03-01T01:53:56;29.15;;;11.90;;
31424;SDS011;18054;51.572;7.372;2023-03-01T01:56:30;24.65;;;12.35;;
31424;SDS011;18054;51.572;7.372;2023-03-01T01:58:58;25.02;;;11.35;;
31424;SDS011;18054;51.572;7.372;2023-03-01T02:01:27;25.13;;;12.27;;
31424;SDS011;18054;51.572;7.372;2023-03-01T02:03:56;22.52;;;10.82;;
31424;SDS011;18054;51.572;7.372;2023-03-01T02:06:27;19.20;;;11.15;;
31424;SDS011;18054;51.572;7.372;2023-03-01T02:09:06;21.02;;;11.68;;
31424;SDS011;18054;51.572;7.372;2023-03-01T02:11:34;27.90;;;12.15;;
31424;SDS011;18054;51.572;7.372;2023-03-01T02:14:07;23.13;;;11.75;;
31424;SDS011;18054;51.572;7.372;2023-03-01T02:16:36;24.25;;;12.32;;
31424;SDS011;18054;51.572;7.372;2023-03-01T02:21:35;22.55;;;11.35;;
31424;SDS011;18054;51.572;7.372;2023-03-01T02:24:10;25.92;;;11.38;;
31424;SDS011;18054;51.572;7.372;2023-03-01T02:26:51;25.88;;;12.90;;
31424;SDS011;18054;51.572;7.372;2023-03-01T02:29:23;27.90;;;11.82;;
31424;SDS011;18054;51.572;7.372;2023-03-01T02:34:27;30.27;;;12.70;;
31424;SDS011;18054;51.572;7.372;2023-03-01T02:36:57;23.75;;;12.32;;
31424;SDS011;18054;51.572;7.372;2023-03-01T02:39:30;22.90;;;12.20;;
31424;SDS011;18054;51.572;7.372;2023-03-01T02:42:05;23.20;;;12.63;;
31424;SDS011;18054;51.572;7.372;2023-03-01T02:44:37;25.88;;;13.88;;
31424;SDS011;18054;51.572;7.372;2023-03-01T02:47:08;25.80;;;12.23;;
31424;SDS011;18054;51.572;7.372;2023-03-01T02:49:36;21.83;;;12.20;;
31424;SDS011;18054;51.572;7.372;2023-03-01T02:54:57;21.08;;;11.73;;
31424;SDS011;18054;51.572;7.372;2023-03-01T02:57:26;27.45;;;12.55;;
31424;SDS011;18054;51.572;7.372;2023-03-01T03:00:06;24.60;;;12.98;;
31424;SDS011;18054;51.572;7.372;2023-03-01T03:02:36;23.42;;;12.93;;
31424;SDS011;18054;51.572;7.372;2023-03-01T03:05:18;24.30;;;13.63;;
31424;SDS011;18054;51.572;7.372;2023-03-01T03:07:48;25.85;;;12.25;;
31424;SDS011;18054;51.572;7.372;2023-03-01T03:10:18;22.42;;;12.85;;
31424;SDS011;18054;51.572;7.372;2023-03-01T03:12:49;22.48;;;11.88;;
31424;SDS011;18054;51.572;7.372;2023-03-01T03:15:18;26.70;;;14.20;;
31424;SDS011;18054;51.572;7.372;2023-03-01T03:17:48;25.00;;;13.48;;
31424;SDS011;18054;51.572;7.372;2023-03-01T03:20:17;23.13;;;12.75;;
31424;SDS011;18054;51.572;7.372;2023-03-01T03:22:51;25.33;;;13.00;;
31424;SDS011;18054;51.572;7.372;2023-03-01T03:25:24;25.45;;;13.60;;
31424;SDS011;18054;51.572;7.372;2023-03-01T03:27:56;25.60;;;13.82;;
31424;SDS011;18054;51.572;7.372;2023-03-01T03:30:30;26.92;;;13.30;;
31424;SDS011;18054;51.572;7.372;2023-03-01T03:32:58;19.83;;;11.38;;
31424;SDS011;18054;51.572;7.372;2023-03-01T03:35:27;25.60;;;13.32;;
31424;SDS011;18054;51.572;7.372;2023-03-01T03:37:56;27.90;;;12.52;;
31424;SDS011;18054;51.572;7.372;2023-03-01T03:40:36;27.58;;;14.02;;
31424;SDS011;18054;51.572;7.372;2023-03-01T03:43:09;21.17;;;11.98;;
31424;SDS011;18054;51.572;7.372;2023-03-01T03:45:38;24.63;;;13.90;;
31424;SDS011;18054;51.572;7.372;2023-03-01T03:48:06;22.08;;;13.70;;
31424;SDS011;18054;51.572;7.372;2023-03-01T03:50:35;25.13;;;13.25;;
31424;SDS011;18054;51.572;7.372;2023-03-01T03:55:30;31.77;;;13.52;;
31424;SDS011;18054;51.572;7.372;2023-03-01T03:58:04;23.98;;;12.98;;
31424;SDS011;18054;51.572;7.372;2023-03-01T04:00:33;37.30;;;14.38;;
31424;SDS011;18054;51.572;7.372;2023-03-01T04:03:02;27.33;;;14.40;;
31424;SDS011;18054;51.572;7.372;2023-03-01T04:05:33;23.92;;;12.63;;
31424;SDS011;18054;51.572;7.372;2023-03-01T04:08:01;35.65;;;12.55;;
31424;SDS011;18054;51.572;7.372;2023-03-01T04:10:34;30.42;;;13.25;;
31424;SDS011;18054;51.572;7.372;2023-03-01T04:13:02;25.60;;;12.90;;
31424;SDS011;18054;51.572;7.372;2023-03-01T04:15:30;23.13;;;12.90;;
31424;SDS011;18054;51.572;7.372;2023-03-01T04:17:58;29.52;;;13.70;;
31424;SDS011;18054;51.572;7.372;2023-03-01T04:20:30;41.67;;;14.25;;
31424;SDS011;18054;51.572;7.372;2023-03-01T04:23:04;26.60;;;13.13;;
31424;SDS011;18054;51.572;7.372;2023-03-01T04:25:44;30.45;;;14.40;;
31424;SDS011;18054;51.572;7.372;2023-03-01T04:28:17;25.38;;;12.77;;
31424;SDS011;18054;51.572;7.372;2023-03-01T04:30:46;24.55;;;14.10;;
31424;SDS011;18054;51.572;7.372;2023-03-01T04:33:13;26.55;;;13.30;;
31424;SDS011;18054;51.572;7.372;2023-03-01T04:35:42;22.35;;;12.32;;
31424;SDS011;18054;51.572;7.372;2023-03-01T04:38:10;27.63;;;14.23;;
31424;SDS011;18054;51.572;7.372;2023-03-01T04:40:37;24.05;;;13.35;;
31424;SDS011;18054;51.572;7.372;2023-03-01T04:43:05;24.08;;;13.27;;
31424;SDS011;18054;51.572;7.372;2023-03-01T04:45:32;29.75;;;14.15;;
31424;SDS011;18054;51.572;7.372;2023-03-01T04:48:02;31.20;;;14.68;;
31424;SDS011;18054;51.572;7.372;2023-03-01T04:50:32;29.58;;;14.02;;
31424;SDS011;18054;51.572;7.372;2023-03-01T04:53:01;23.73;;;14.05;;
31424;SDS011;18054;51.572;7.372;2023-03-01T04:55:34;25.17;;;12.98;;
31424;SDS011;18054;51.572;7.372;2023-03-01T04:58:04;22.17;;;13.27;;
31424;SDS011;18054;51.572;7.372;2023-03-01T05:00:32;30.55;;;13.95;;
31424;SDS011;18054;51.572;7.372;2023-03-01T05:03:02;29.63;;;14.43;;
31424;SDS011;18054;51.572;7.372;2023-03-01T05:05:31;27.23;;;13.52;;
31424;SDS011;18054;51.572;7.372;2023-03-01T05:08:02;31.63;;;14.15;;
31424;SDS011;18054;51.572;7.372;2023-03-01T05:10:31;30.63;;;14.85;;
31424;SDS011;18054;51.572;7.372;2023-03-01T05:13:02;28.65;;;13.32;;
31424;SDS011;18054;51.572;7.372;2023-03-01T05:15:32;34.80;;;14.77;;
31424;SDS011;18054;51.572;7.372;2023-03-01T05:18:03;28.55;;;13.30;;
31424;SDS011;18054;51.572;7.372;2023-03-01T05:20:39;29.15;;;13.63;;
31424;SDS011;18054;51.572;7.372;2023-03-01T05:23:11;31.17;;;15.07;;
31424;SDS011;18054;51.572;7.372;2023-03-01T05:25:41;24.58;;;13.93;;
31424;SDS011;18054;51.572;7.372;2023-03-01T05:28:12;25.30;;;15.13;;
31424;SDS011;18054;51.572;7.372;2023-03-01T05:30:43;43.80;;;14.70;;
31424;SDS011;18054;51.572;7.372;2023-03-01T05:33:11;32.13;;;15.55;;
31424;SDS011;18054;51.572;7.372;2023-03-01T05:35:40;44.38;;;15.90;;
31424;SDS011;18054;51.572;7.372;2023-03-01T05:38:08;42.03;;;14.60;;
31424;SDS011;18054;51.572;7.372;2023-03-01T05:40:40;32.95;;;14.93;;
31424;SDS011;18054;51.572;7.372;2023-03-01T05:43:15;40.85;;;14.07;;
31424;SDS011;18054;51.572;7.372;2023-03-01T05:45:43;29.80;;;13.88;;
31424;SDS011;18054;51.572;7.372;2023-03-01T05:48:11;26.45;;;13.73;;
31424;SDS011;18054;51.572;7.372;2023-03-01T05:50:42;31.50;;;14.30;;
31424;SDS011;18054;51.572;7.372;2023-03-01T05:53:12;30.58;;;14.45;;
31424;SDS011;18054;51.572;7.372;2023-03-01T05:55:45;34.30;;;14.18;;
31424;SDS011;18054;51.572;7.372;2023-03-01T05:58:15;29.15;;;15.32;;
31424;SDS011;18054;51.572;7.372;2023-03-01T06:00:43;27.05;;;13.10;;
31424;SDS011;18054;51.572;7.372;2023-03-01T06:03:15;48.53;;;14.82;;
31424;SDS011;18054;51.572;7.372;2023-03-01T06:05:44;53.72;;;15.82;;
31424;SDS011;18054;51.572;7.372;2023-03-01T06:08:13;36.75;;;15.18;;
31424;SDS011;18054;51.572;7.372;2023-03-01T06:10:40;28.90;;;14.23;;
31424;SDS011;18054;51.572;7.372;2023-03-01T06:13:12;33.55;;;13.90;;
31424;SDS011;18054;51.572;7.372;2023-03-01T06:15:40;31.90;;;15.32;;
31424;SDS011;18054;51.572;7.372;2023-03-01T06:18:08;32.35;;;15.40;;
31424;SDS011;18054;51.572;7.372;2023-03-01T06:20:37;31.25;;;17.15;;
31424;SDS011;18054;51.572;7.372;2023-03-01T06:23:04;36.05;;;16.70;;
31424;SDS011;18054;51.572;7.372;2023-03-01T06:25:32;34.67;;;15.07;;
31424;SDS011;18054;51.572;7.372;2023-03-01T06:28:00;36.58;;;15.02;;
31424;SDS011;18054;51.572;7.372;2023-03-01T06:30:38;43.72;;;15.30;;
31424;SDS011;18054;51.572;7.372;2023-03-01T06:33:08;46.15;;;15.98;;
31424;SDS011;18054;51.572;7.372;2023-03-01T06:35:35;37.90;;;15.90;;
31424;SDS011;18054;51.572;7.372;2023-03-01T06:40:32;53.45;;;15.88;;
31424;SDS011;18054;51.572;7.372;2023-03-01T06:43:01;48.53;;;16.83;;
31424;SDS011;18054;51.572;7.372;2023-03-01T06:48:04;33.03;;;15.60;;
31424;SDS011;18054;51.572;7.372;2023-03-01T06:50:36;32.38;;;15.30;;
31424;SDS011;18054;51.572;7.372;2023-03-01T06:53:04;33.50;;;15.63;;
31424;SDS011;18054;51.572;7.372;2023-03-01T06:55:33;33.00;;;16.70;;
31424;SDS011;18054;51.572;7.372;2023-03-01T06:58:02;44.63;;;16.65;;
31424;SDS011;18054;51.572;7.372;2023-03-01T07:00:32;34.88;;;16.67;;
31424;SDS011;18054;51.572;7.372;2023-03-01T07:03:00;37.22;;;17.05;;
31424;SDS011;18054;51.572;7.372;2023-03-01T07:05:30;47.65;;;17.08;;
31424;SDS011;18054;51.572;7.372;2023-03-01T07:08:00;41.13;;;17.25;;
31424;SDS011;18054;51.572;7.372;2023-03-01T07:10:30;33.53;;;17.02;;
31424;SDS011;18054;51.572;7.372;2023-03-01T07:15:34;31.88;;;16.85;;
31424;SDS011;18054;51.572;7.372;2023-03-01T07:20:36;32.60;;;16.50;;
31424;SDS011;18054;51.572;7.372;2023-03-01T07:23:05;41.97;;;17.00;;
31424;SDS011;18054;51.572;7.372;2023-03-01T07:25:32;36.85;;;17.55;;
31424;SDS011;18054;51.572;7.372;2023-03-01T07:28:00;33.83;;;16.85;;
31424;SDS011;18054;51.572;7.372;2023-03-01T07:30:27;40.05;;;16.25;;
31424;SDS011;18054;51.572;7.372;2023-03-01T07:32:58;33.40;;;16.80;;
31424;SDS011;18054;51.572;7.372;2023-03-01T07:35:26;32.50;;;16.45;;
31424;SDS011;18054;51.572;7.372;2023-03-01T07:37:55;36.78;;;15.77;;
31424;SDS011;18054;51.572;7.372;2023-03-01T07:40:28;42.80;;;16.27;;
31424;SDS011;18054;51.572;7.372;2023-03-01T07:42:55;31.33;;;15.75;;
31424;SDS011;18054;51.572;7.372;2023-03-01T07:45:25;36.08;;;15.98;;
31424;SDS011;18054;51.572;7.372;2023-03-01T07:47:53;31.75;;;15.55;;
31424;SDS011;18054;51.572;7.372;2023-03-01T07:50:21;42.30;;;17.30;;
31424;SDS011;18054;51.572;7.372;2023-03-01T07:55:17;36.35;;;15.70;;
31424;SDS011;18054;51.572;7.372;2023-03-01T07:57:46;30.63;;;14.40;;
31424;SDS011;18054;51.572;7.372;2023-03-01T08:00:14;27.45;;;13.18;;
31424;SDS011;18054;51.572;7.372;2023-03-01T08:02:42;27.02;;;13.48;;
31424;SDS011;18054;51.572;7.372;2023-03-01T08:05:13;31.45;;;13.30;;
31424;SDS011;18054;51.572;7.372;2023-03-01T08:07:42;26.33;;;12.48;;
31424;SDS011;18054;51.572;7.372;2023-03-01T08:10:10;28.63;;;11.85;;
31424;SDS011;18054;51.572;7.372;2023-03-01T08:12:42;19.90;;;11.18;;
31424;SDS011;18054;51.572;7.372;2023-03-01T08:15:12;34.60;;;11.75;;
31424;SDS011;18054;51.572;7.372;2023-03-01T08:17:39;29.90;;;12.13;;
31424;SDS011;18054;51.572;7.372;2023-03-01T08:20:09;24.63;;;13.63;;
31424;SDS011;18054;51.572;7.372;2023-03-01T08:22:41;29.85;;;11.38;;
31424;SDS011;18054;51.572;7.372;2023-03-01T08:25:08;18.85;;;11.07;;
31424;SDS011;18054;51.572;7.372;2023-03-01T08:27:38;24.17;;;10.95;;
31424;SDS011;18054;51.572;7.372;2023-03-01T08:30:13;20.60;;;9.88;;
31424;SDS011;18054;51.572;7.372;2023-03-01T08:32:49;28.60;;;10.57;;
31424;SDS011;18054;51.572;7.372;2023-03-01T08:35:22;31.95;;;10.40;;
31424;SDS011;18054;51.572;7.372;2023-03-01T08:37:50;21.48;;;11.35;;
31424;SDS011;18054;51.572;7.372;2023-03-01T08:40:19;20.33;;;10.15;;
31424;SDS011;18054;51.572;7.372;2023-03-01T08:42:47;24.73;;;9.35;;
31424;SDS011;18054;51.572;7.372;2023-03-01T08:45:16;23.65;;;10.35;;
31424;SDS011;18054;51.572;7.372;2023-03-01T08:47:51;28.77;;;10.07;;
31424;SDS011;18054;51.572;7.372;2023-03-01T08:50:20;22.98;;;9.52;;
31424;SDS011;18054;51.572;7.372;2023-03-01T08:53:10;18.45;;;9.25;;
31424;SDS011;18054;51.572;7.372;2023-03-01T08:55:40;23.88;;;11.07;;
31424;SDS011;18054;51.572;7.372;2023-03-01T08:58:07;27.40;;;11.10;;
31424;SDS011;18054;51.572;7.372;2023-03-01T09:00:39;24.15;;;9.20;;
31424;SDS011;18054;51.572;7.372;2023-03-01T09:03:07;31.73;;;10.63;;
31424;SDS011;18054;51.572;7.372;2023-03-01T09:05:37;33.58;;;10.15;;
31424;SDS011;18054;51.572;7.372;2023-03-01T09:08:05;22.50;;;9.60;;
31424;SDS011;18054;51.572;7.372;2023-03-01T09:10:38;20.80;;;9.57;;
31424;SDS011;18054;51.572;7.372;2023-03-01T09:13:09;19.33;;;9.10;;
31424;SDS011;18054;51.572;7.372;2023-03-01T09:15:41;19.15;;;10.07;;
31424;SDS011;18054;51.572;7.372;2023-03-01T09:18:10;23.55;;;9.93;;
31424;SDS011;18054;51.572;7.372;2023-03-01T09:20:42;23.35;;;10.32;;
31424;SDS011;18054;51.572;7.372;2023-03-01T09:23:15;18.63;;;9.57;;
31424;SDS011;18054;51.572;7.372;2023-03-01T09:25:44;16.00;;;9.30;;
31424;SDS011;18054;51.572;7.372;2023-03-01T09:28:12;22.08;;;9.00;;
31424;SDS011;18054;51.572;7.372;2023-03-01T09:30:58;16.75;;;9.45;;
31424;SDS011;18054;51.572;7.372;2023-03-01T09:33:27;17.25;;;9.25;;
31424;SDS011;18054;51.572;7.372;2023-03-01T09:35:58;16.40;;;8.93;;
31424;SDS011;18054;51.572;7.372;2023-03-01T09:38:29;28.30;;;9.52;;
31424;SDS011;18054;51.572;7.372;2023-03-01T09:40:58;19.50;;;8.30;;
31424;SDS011;18054;51.572;7.372;2023-03-01T09:43:29;17.23;;;8.20;;
31424;SDS011;18054;51.572;7.372;2023-03-01T09:46:10;15.20;;;7.32;;
31424;SDS011;18054;51.572;7.372;2023-03-01T09:48:55;18.83;;;7.95;;
31424;SDS011;18054;51.572;7.372;2023-03-01T09:51:34;11.77;;;5.60;;
31424;SDS011;18054;51.572;7.372;2023-03-01T09:54:02;22.45;;;7.68;;
31424;SDS011;18054;51.572;7.372;2023-03-01T09:56:32;16.20;;;8.00;;
31424;SDS011;18054;51.572;7.372;2023-03-01T09:59:03;21.73;;;8.48;;
31424;SDS011;18054;51.572;7.372;2023-03-01T10:01:43;17.60;;;8.65;;
31424;SDS011;18054;51.572;7.372;2023-03-01T10:04:24;15.77;;;7.13;;
31424;SDS011;18054;51.572;7.372;2023-03-01T10:06:56;19.55;;;8.85;;
31424;SDS011;18054;51.572;7.372;2023-03-01T10:09:33;14.10;;;7.65;;
31424;SDS011;18054;51.572;7.372;2023-03-01T10:12:04;21.48;;;8.13;;
31424;SDS011;18054;51.572;7.372;2023-03-01T10:14:38;13.98;;;7.63;;
31424;SDS011;18054;51.572;7.372;2023-03-01T10:17:12;15.90;;;7.10;;
31424;SDS011;18054;51.572;7.372;2023-03-01T10:19:46;15.50;;;7.38;;
31424;SDS011;18054;51.572;7.372;2023-03-01T10:22:15;14.70;;;7.85;;
31424;SDS011;18054;51.572;7.372;2023-03-01T10:24:48;15.68;;;7.25;;
31424;SDS011;18054;51.572;7.372;2023-03-01T10:27:16;14.05;;;7.15;;
31424;SDS011;18054;51.572;7.372;2023-03-01T10:29:47;15.50;;;7.13;;
31424;SDS011;18054;51.572;7.372;2023-03-01T10:32:17;20.90;;;7.22;;
31424;SDS011;18054;51.572;7.372;2023-03-01T10:34:56;14.98;;;6.43;;
31424;SDS011;18054;51.572;7.372;2023-03-01T10:37:24;15.35;;;6.78;;
31424;SDS011;18054;51.572;7.372;2023-03-01T10:40:01;15.65;;;6.85;;
31424;SDS011;18054;51.572;7.372;2023-03-01T10:42:33;14.32;;;7.22;;
31424;SDS011;18054;51.572;7.372;2023-03-01T10:45:14;11.35;;;7.20;;
31424;SDS011;18054;51.572;7.372;2023-03-01T10:47:48;16.58;;;6.88;;
31424;SDS011;18054;51.572;7.372;2023-03-01T10:50:30;14.55;;;7.03;;
31424;SDS011;18054;51.572;7.372;2023-03-01T10:53:16;12.20;;;5.78;;
31424;SDS011;18054;51.572;7.372;2023-03-01T10:55:47;15.52;;;6.20;;
31424;SDS011;18054;51.572;7.372;2023-03-01T10:58:16;14.57;;;6.35;;
31424;SDS011;18054;51.572;7.372;2023-03-01T11:00:48;22.13;;;6.65;;
31424;SDS011;18054;51.572;7.372;2023-03-01T11:03:19;12.70;;;6.50;;
31424;SDS011;18054;51.572;7.372;2023-03-01T11:05:52;14.73;;;7.20;;
31424;SDS011;18054;51.572;7.372;2023-03-01T11:08:33;16.60;;;7.15;;
31424;SDS011;18054;51.572;7.372;2023-03-01T11:11:16;14.20;;;7.25;;
31424;SDS011;18054;51.572;7.372;2023-03-01T11:16:22;17.25;;;6.25;;
31424;SDS011;18054;51.572;7.372;2023-03-01T11:18:58;15.50;;;7.65;;
31424;SDS011;18054;51.572;7.372;2023-03-01T11:21:29;16.77;;;8.02;;
31424;SDS011;18054;51.572;7.372;2023-03-01T11:24:00;18.67;;;8.63;;
31424;SDS011;18054;51.572;7.372;2023-03-01T11:26:29;18.15;;;7.85;;
31424;SDS011;18054;51.572;7.372;2023-03-01T11:28:58;19.15;;;7.00;;
31424;SDS011;18054;51.572;7.372;2023-03-01T11:31:30;17.63;;;8.25;;
31424;SDS011;18054;51.572;7.372;2023-03-01T11:34:05;21.33;;;8.00;;
31424;SDS011;18054;51.572;7.372;2023-03-01T11:36:39;15.13;;;7.30;;
31424;SDS011;18054;51.572;7.372;2023-03-01T11:39:18;13.90;;;7.38;;
31424;SDS011;18054;51.572;7.372;2023-03-01T11:42:00;14.05;;;6.93;;
31424;SDS011;18054;51.572;7.372;2023-03-01T11:44:44;14.32;;;7.68;;
31424;SDS011;18054;51.572;7.372;2023-03-01T11:47:19;12.38;;;6.75;;
31424;SDS011;18054;51.572;7.372;2023-03-01T11:50:03;19.67;;;7.85;;
31424;SDS011;18054;51.572;7.372;2023-03-01T11:55:17;15.25;;;7.25;;
31424;SDS011;18054;51.572;7.372;2023-03-01T11:57:55;15.88;;;7.20;;
31424;SDS011;18054;51.572;7.372;2023-03-01T12:00:37;15.02;;;7.15;;
31424;SDS011;18054;51.572;7.372;2023-03-01T12:03:13;19.40;;;7.65;;
31424;SDS011;18054;51.572;7.372;2023-03-01T12:08:42;13.13;;;6.72;;
31424;SDS011;18054;51.572;7.372;2023-03-01T12:11:17;15.18;;;7.50;;
31424;SDS011;18054;51.572;7.372;2023-03-01T12:13:54;15.50;;;7.13;;
31424;SDS011;18054;51.572;7.372;2023-03-01T12:19:17;12.02;;;7.15;;
31424;SDS011;18054;51.572;7.372;2023-03-01T12:21:55;15.02;;;6.63;;
31424;SDS011;18054;51.572;7.372;2023-03-01T12:27:35;12.30;;;8.27;;
31424;SDS011;18054;51.572;7.372;2023-03-01T12:30:10;10.15;;;6.25;;
31424;SDS011;18054;51.572;7.372;2023-03-01T12:32:47;10.48;;;5.90;;
31424;SDS011;18054;51.572;7.372;2023-03-01T12:35:31;10.02;;;6.13;;
31424;SDS011;18054;51.572;7.372;2023-03-01T12:40:40;16.83;;;5.93;;
31424;SDS011;18054;51.572;7.372;2023-03-01T12:43:17;15.07;;;7.13;;
31424;SDS011;18054;51.572;7.372;2023-03-01T12:45:48;14.02;;;6.20;;
31424;SDS011;18054;51.572;7.372;2023-03-01T12:48:36;9.82;;;6.68;;
31424;SDS011;18054;51.572;7.372;2023-03-01T12:51:14;9.05;;;5.72;;
31424;SDS011;18054;51.572;7.372;2023-03-01T12:53:46;12.60;;;6.68;;
31424;SDS011;18054;51.572;7.372;2023-03-01T12:56:15;8.70;;;5.95;;
31424;SDS011;18054;51.572;7.372;2023-03-01T12:58:50;12.30;;;6.18;;
31424;SDS011;18054;51.572;7.372;2023-03-01T13:01:30;7.70;;;5.10;;
31424;SDS011;18054;51.572;7.372;2023-03-01T13:04:14;12.65;;;6.40;;
31424;SDS011;18054;51.572;7.372;2023-03-01T13:06:50;10.07;;;6.22;;
31424;SDS011;18054;51.572;7.372;2023-03-01T13:09:24;17.58;;;7.03;;
31424;SDS011;18054;51.572;7.372;2023-03-01T13:11:56;10.60;;;6.32;;
31424;SDS011;18054;51.572;7.372;2023-03-01T13:16:53;10.35;;;6.80;;
31424;SDS011;18054;51.572;7.372;2023-03-01T13:19:24;10.38;;;6.45;;
31424;SDS011;18054;51.572;7.372;2023-03-01T13:24:48;16.33;;;7.13;;
31424;SDS011;18054;51.572;7.372;2023-03-01T13:27:34;14.80;;;6.93;;
31424;SDS011;18054;51.572;7.372;2023-03-01T13:30:12;9.75;;;6.95;;
31424;SDS011;18054;51.572;7.372;2023-03-01T13:33:04;11.85;;;7.00;;
31424;SDS011;18054;51.572;7.372;2023-03-01T13:36:08;10.80;;;7.13;;
31424;SDS011;18054;51.572;7.372;2023-03-01T13:38:44;12.93;;;6.18;;
31424;SDS011;18054;51.572;7.372;2023-03-01T13:44:07;11.07;;;6.30;;
31424;SDS011;18054;51.572;7.372;2023-03-01T13:46:44;13.75;;;6.68;;
31424;SDS011;18054;51.572;7.372;2023-03-01T13:49:21;14.15;;;6.43;;
31424;SDS011;18054;51.572;7.372;2023-03-01T13:51:56;17.83;;;7.25;;
31424;SDS011;18054;51.572;7.372;2023-03-01T13:54:27;12.00;;;6.90;;
31424;SDS011;18054;51.572;7.372;2023-03-01T13:56:56;11.75;;;6.75;;
31424;SDS011;18054;51.572;7.372;2023-03-01T13:59:27;11.52;;;6.93;;
31424;SDS011;18054;51.572;7.372;2023-03-01T14:02:00;14.45;;;6.60;;
31424;SDS011;18054;51.572;7.372;2023-03-01T14:04:34;18.08;;;6.93;;
31424;SDS011;18054;51.572;7.372;2023-03-01T14:07:08;15.20;;;6.32;;
31424;SDS011;18054;51.572;7.372;2023-03-01T14:09:39;16.10;;;6.65;;
31424;SDS011;18054;51.572;7.372;2023-03-01T14:12:14;10.65;;;6.80;;
31424;SDS011;18054;51.572;7.372;2023-03-01T14:15:02;11.07;;;6.60;;
31424;SDS011;18054;51.572;7.372;2023-03-01T14:17:42;10.55;;;7.35;;
31424;SDS011;18054;51.572;7.372;2023-03-01T14:20:19;10.07;;;6.55;;
31424;SDS011;18054;51.572;7.372;2023-03-01T14:22:47;12.65;;;7.18;;
31424;SDS011;18054;51.572;7.372;2023-03-01T14:25:23;12.25;;;7.13;;
31424;SDS011;18054;51.572;7.372;2023-03-01T14:27:51;13.93;;;7.80;;
31424;SDS011;18054;51.572;7.372;2023-03-01T14:30:21;11.38;;;6.97;;
31424;SDS011;18054;51.572;7.372;2023-03-01T14:32:54;15.35;;;6.93;;
31424;SDS011;18054;51.572;7.372;2023-03-01T14:35:26;16.08;;;6.57;;
31424;SDS011;18054;51.572;7.372;2023-03-01T14:37:58;14.10;;;8.18;;
31424;SDS011;18054;51.572;7.372;2023-03-01T14:40:31;13.20;;;6.93;;
31424;SDS011;18054;51.572;7.372;2023-03-01T14:43:00;13.80;;;6.57;;
31424;SDS011;18054;51.572;7.372;2023-03-01T14:45:29;13.32;;;6.38;;
31424;SDS011;18054;51.572;7.372;2023-03-01T14:48:04;9.23;;;5.85;;
31424;SDS011;18054;51.572;7.372;2023-03-01T14:50:40;13.65;;;6.13;;
31424;SDS011;18054;51.572;7.372;2023-03-01T14:53:12;10.88;;;6.68;;
31424;SDS011;18054;51.572;7.372;2023-03-01T14:55:44;11.07;;;7.50;;
31424;SDS011;18054;51.572;7.372;2023-03-01T14:58:15;13.98;;;6.53;;
31424;SDS011;18054;51.572;7.372;2023-03-01T15:00:57;11.73;;;6.93;;
31424;SDS011;18054;51.572;7.372;2023-03-01T15:03:27;16.90;;;7.90;;
31424;SDS011;18054;51.572;7.372;2023-03-01T15:06:01;11.50;;;6.85;;
31424;SDS011;18054;51.572;7.372;2023-03-01T15:08:32;15.18;;;7.90;;
31424;SDS011;18054;51.572;7.372;2023-03-01T15:11:01;14.32;;;7.32;;
31424;SDS011;18054;51.572;7.372;2023-03-01T15:13:32;21.08;;;6.50;;
31424;SDS011;18054;51.572;7.372;2023-03-01T15:16:14;13.80;;;6.50;;
31424;SDS011;18054;51.572;7.372;2023-03-01T15:18:44;14.00;;;7.07;;
31424;SDS011;18054;51.572;7.372;2023-03-01T15:21:17;15.73;;;7.18;;
31424;SDS011;18054;51.572;7.372;2023-03-01T15:23:50;13.55;;;7.57;;
31424;SDS011;18054;51.572;7.372;2023-03-01T15:26:23;14.70;;;7.25;;
31424;SDS011;18054;51.572;7.372;2023-03-01T15:28:52;16.80;;;6.63;;
31424;SDS011;18054;51.572;7.372;2023-03-01T15:31:23;12.40;;;7.25;;
31424;SDS011;18054;51.572;7.372;2023-03-01T15:33:51;17.25;;;7.10;;
31424;SDS011;18054;51.572;7.372;2023-03-01T15:36:36;14.75;;;6.38;;
31424;SDS011;18054;51.572;7.372;2023-03-01T15:39:29;18.02;;;6.63;;
31424;SDS011;18054;51.572;7.372;2023-03-01T15:42:03;15.48;;;6.72;;
31424;SDS011;18054;51.572;7.372;2023-03-01T15:44:32;11.50;;;6.05;;
31424;SDS011;18054;51.572;7.372;2023-03-01T15:47:21;14.20;;;5.47;;
31424;SDS011;18054;51.572;7.372;2023-03-01T15:49:50;18.27;;;5.53;;
31424;SDS011;18054;51.572;7.372;2023-03-01T15:52:23;13.43;;;5.85;;
31424;SDS011;18054;51.572;7.372;2023-03-01T15:54:58;10.85;;;5.05;;